Time;durP1;ratioP1;P1;durP2;ratioP2;P2;SDS_P1;SDS_P2;PMS_P1;PMS_P2;Temp;Humidity;BMP_temperature;BMP_pressure;BME280_temperature;BME280_humidity;BME280_pressure;Samples;Min_cycle;Max_cycle;Signal;HPM_P1;HPM_P2
2020/12/10 00:01:07;;;;;;;5.03;2.00;;;;;;;20.57;37.29;99172.72;5014257;28;20128;-78
2020/12/10 00:03:33;;;;;;;3.90;1.83;;;;;;;20.59;37.42;99173.53;4995378;28;20121;-77
2020/12/10 00:05:58;;;;;;;2.00;1.52;;;;;;;20.56;37.22;99163.13;4996623;28;20038;-76
2020/12/10 00:08:24;;;;;;;2.30;1.60;;;;;;;20.57;37.34;99151.69;5010886;28;20030;-77
2020/12/10 00:10:50;;;;;;;2.30;1.80;;;;;;;20.60;37.37;99141.03;4993133;28;20034;-75
2020/12/10 00:13:16;;;;;;;2.38;1.65;;;;;;;20.58;37.31;99137.59;4994646;28;20034;-75
2020/12/10 00:15:43;;;;;;;2.75;1.38;;;;;;;20.58;37.46;99137.59;4994256;28;20062;-77
2020/12/10 00:18:09;;;;;;;2.42;1.85;;;;;;;20.57;37.48;99130.63;4977837;28;20440;-75
2020/12/10 00:20:34;;;;;;;2.70;1.70;;;;;;;20.57;37.65;99130.63;4994011;28;20070;-77
2020/12/10 00:23:00;;;;;;;2.75;1.80;;;;;;;20.56;37.40;99124.50;4994086;28;20459;-80
2020/12/10 00:25:25;;;;;;;2.50;1.73;;;;;;;20.57;37.35;99112.19;4976315;28;20030;-78
2020/12/10 00:27:51;;;;;;;2.55;1.80;;;;;;;20.57;37.47;99115.69;4998097;28;20124;-76
2020/12/10 00:30:16;;;;;;;2.55;1.83;;;;;;;20.57;37.33;99117.47;5008886;28;20410;-76
2020/12/10 00:32:42;;;;;;;2.63;2.10;;;;;;;20.56;37.59;99115.75;5005069;28;20042;-76
2020/12/10 00:35:09;;;;;;;3.35;1.95;;;;;;;20.55;37.50;99112.28;4993803;28;20035;-76
2020/12/10 00:37:35;;;;;;;2.58;1.83;;;;;;;20.54;37.40;99103.53;5001942;28;20125;-77
2020/12/10 00:40:05;;;;;;;2.25;2.03;;;;;;;20.54;37.34;99100.03;4994202;28;20502;-75
2020/12/10 00:42:31;;;;;;;1.98;1.52;;;;;;;20.55;37.35;99091.22;5006577;28;20029;-76
2020/12/10 00:44:56;;;;;;;2.00;1.50;;;;;;;20.57;37.48;99096.41;5004187;28;20049;-75
2020/12/10 00:47:21;;;;;;;1.83;1.50;;;;;;;20.57;37.34;99091.16;5011041;28;20034;-76
2020/12/10 00:49:47;;;;;;;2.63;1.63;;;;;;;20.57;37.54;99093.78;4995442;28;20030;-77
2020/12/10 00:52:14;;;;;;;3.05;1.92;;;;;;;20.55;37.22;99078.06;4994746;28;20057;-75
2020/12/10 00:54:40;;;;;;;2.17;1.73;;;;;;;20.55;37.31;99075.44;4995203;28;20044;-77
2020/12/10 00:57:10;;;;;;;3.42;2.25;;;;;;;20.54;37.34;99069.31;4994039;28;20035;-75
2020/12/10 00:59:36;;;;;;;2.45;1.55;;;;;;;20.56;37.19;99066.63;4994712;28;20046;-77
2020/12/10 01:02:01;;;;;;;2.35;1.45;;;;;;;20.54;37.27;99063.19;5009584;28;20049;-75
2020/12/10 01:04:27;;;;;;;2.72;1.63;;;;;;;20.53;37.21;99056.22;5009303;28;20041;-77
2020/12/10 01:06:52;;;;;;;2.33;1.88;;;;;;;20.54;37.32;99052.66;4997150;28;20406;-77
2020/12/10 01:09:18;;;;;;;3.63;2.15;;;;;;;20.52;37.47;99050.09;5009069;28;20038;-77
2020/12/10 01:11:43;;;;;;;2.80;1.70;;;;;;;20.52;37.14;99063.25;4995123;28;20045;-76
2020/12/10 01:14:09;;;;;;;3.28;2.20;;;;;;;20.52;37.49;99070.28;5002071;28;20034;-75
2020/12/10 01:16:35;;;;;;;2.67;1.70;;;;;;;20.52;37.32;99063.25;4994611;28;20034;-77
2020/12/10 01:19:00;;;;;;;3.20;1.80;;;;;;;20.52;37.17;99062.38;5007383;28;20042;-77
2020/12/10 01:21:30;;;;;;;2.20;1.60;;;;;;;20.49;37.10;99063.38;4991190;28;20093;-78
2020/12/10 01:23:56;;;;;;;3.10;1.77;;;;;;;20.51;37.44;99063.31;5012001;28;20049;-76
2020/12/10 01:26:24;;;;;;;3.08;2.05;;;;;;;20.50;37.48;99069.47;4992066;28;20491;-75
2020/12/10 01:28:50;;;;;;;2.30;1.75;;;;;;;20.52;37.42;99065.03;4992809;28;20042;-74
2020/12/10 01:31:15;;;;;;;4.05;2.28;;;;;;;20.49;37.22;99066.00;4993258;28;20034;-77
2020/12/10 01:33:40;;;;;;;2.20;1.58;;;;;;;20.49;37.51;99075.66;5004020;28;20034;-77
2020/12/10 01:36:06;;;;;;;2.60;1.90;;;;;;;20.49;37.29;99076.53;4995205;28;20041;-78
2020/12/10 01:38:31;;;;;;;3.25;2.03;;;;;;;20.49;37.23;99075.66;4993613;28;20045;-74
2020/12/10 01:40:57;;;;;;;2.45;1.85;;;;;;;20.49;37.48;99071.28;5010707;28;20077;-77
2020/12/10 01:43:23;;;;;;;2.55;2.00;;;;;;;20.48;37.26;99074.81;4997783;28;20038;-76
2020/12/10 01:45:49;;;;;;;3.10;1.85;;;;;;;20.48;37.23;99080.09;4994620;28;20085;-79
2020/12/10 01:48:14;;;;;;;3.05;2.00;;;;;;;20.49;37.29;99081.81;4994788;28;20557;-75
2020/12/10 01:50:39;;;;;;;2.50;1.75;;;;;;;20.46;37.44;99081.91;5003753;28;20485;-77
2020/12/10 01:53:05;;;;;;;2.80;1.83;;;;;;;20.48;37.03;99084.47;4992474;28;20060;-77
2020/12/10 01:55:30;;;;;;;2.10;1.55;;;;;;;20.46;37.26;99079.28;5003204;28;20041;-78
2020/12/10 01:57:56;;;;;;;1.92;1.50;;;;;;;20.48;37.35;99080.09;4993483;28;20030;-77
2020/12/10 02:00:21;;;;;;;2.28;1.60;;;;;;;20.45;37.30;99074.94;5005126;28;20033;-75
2020/12/10 02:02:54;;;;;;;2.13;1.65;;;;;;;20.46;37.33;99079.28;4993185;28;20109;-76
2020/12/10 02:05:19;;;;;;;2.20;1.25;;;;;;;20.46;37.43;99070.56;4991857;28;20606;-76
2020/12/10 02:07:45;;;;;;;2.78;1.80;;;;;;;20.46;37.36;99073.19;4995303;28;20105;-76
2020/12/10 02:10:10;;;;;;;2.53;1.70;;;;;;;20.45;37.18;99063.56;4993665;28;20030;-77
2020/12/10 02:12:39;;;;;;;2.45;1.77;;;;;;;20.46;37.34;99065.28;4991492;28;20030;-76
2020/12/10 02:15:05;;;;;;;2.00;1.30;;;;;;;20.43;37.38;99060.97;4996379;28;20029;-75
2020/12/10 02:17:30;;;;;;;4.18;1.48;;;;;;;20.47;37.36;99061.75;5008281;28;20018;-77
2020/12/10 02:19:55;;;;;;;2.42;1.63;;;;;;;20.45;37.38;99064.41;4978268;28;20092;-77
2020/12/10 02:22:21;;;;;;;3.08;2.15;;;;;;;20.44;37.31;99060.06;4993840;28;20045;-78
2020/12/10 02:24:46;;;;;;;2.28;1.70;;;;;;;20.45;37.34;99053.88;5008782;28;20123;-78
2020/12/10 02:27:12;;;;;;;2.85;1.60;;;;;;;20.43;37.14;99052.25;4997408;28;20045;-78
2020/12/10 02:29:37;;;;;;;2.53;2.00;;;;;;;20.44;37.38;99046.06;4976269;28;20030;-77
2020/12/10 02:32:03;;;;;;;2.67;1.85;;;;;;;20.44;37.49;99040.81;4989183;28;20022;-75
2020/12/10 02:34:28;;;;;;;1.80;1.50;;;;;;;20.44;37.15;99035.53;4980354;28;20025;-78
2020/12/10 02:36:53;;;;;;;1.90;1.55;;;;;;;20.46;37.17;99033.72;4996645;28;20450;-78
2020/12/10 02:39:20;;;;;;;2.58;1.63;;;;;;;20.44;37.44;99028.50;4995498;28;20026;-79
2020/12/10 02:41:47;;;;;;;2.65;1.77;;;;;;;20.44;37.28;99014.50;4994131;28;20112;-75
2020/12/10 02:44:12;;;;;;;1.98;1.48;;;;;;;20.45;37.16;99018.84;4990235;28;20026;-77
2020/12/10 02:46:38;;;;;;;1.90;1.65;;;;;;;20.43;37.32;99018.03;4995141;28;20045;-77
2020/12/10 02:49:03;;;;;;;2.05;1.60;;;;;;;20.42;37.18;99017.16;5010645;28;20025;-77
2020/12/10 02:51:29;;;;;;;3.10;1.50;;;;;;;20.44;37.34;99015.34;4991486;28;20097;-79
2020/12/10 02:53:54;;;;;;;2.08;1.55;;;;;;;20.43;37.31;99004.88;5010028;28;20096;-77
2020/12/10 02:56:19;;;;;;;2.08;1.60;;;;;;;20.43;37.08;98997.00;4992936;28;20034;-77
2020/12/10 02:58:45;;;;;;;3.03;2.00;;;;;;;20.43;37.28;99007.50;4993120;28;20027;-77
2020/12/10 03:01:11;;;;;;;2.20;1.45;;;;;;;20.43;37.12;98999.63;4991739;28;20053;-76
2020/12/10 03:03:38;;;;;;;2.22;1.48;;;;;;;20.44;37.12;99010.06;4986028;28;20030;-77
2020/12/10 03:06:06;;;;;;;2.28;1.60;;;;;;;20.45;37.19;99000.41;5002339;28;20046;-79
2020/12/10 03:08:31;;;;;;;1.92;1.33;;;;;;;20.43;37.20;98994.34;5005743;28;20443;-78
2020/12/10 03:10:57;;;;;;;2.08;1.40;;;;;;;20.44;37.31;98988.19;4991464;28;20069;-78
2020/12/10 03:13:23;;;;;;;3.33;1.60;;;;;;;20.44;37.26;98993.44;4995513;28;20520;-75
2020/12/10 03:15:49;;;;;;;1.92;1.42;;;;;;;20.43;37.20;98994.34;5014224;28;20041;-77
2020/12/10 03:18:14;;;;;;;2.00;1.38;;;;;;;20.44;37.02;98986.38;4991710;28;20041;-75
2020/12/10 03:20:39;;;;;;;1.92;1.40;;;;;;;20.44;37.24;98981.13;4995636;28;20550;-77
2020/12/10 03:23:05;;;;;;;2.03;1.33;;;;;;;20.42;37.22;98966.34;5012067;28;20097;-77
2020/12/10 03:25:30;;;;;;;2.17;1.33;;;;;;;20.42;37.22;98950.53;4993620;28;20122;-75
2020/12/10 03:27:56;;;;;;;1.60;1.33;;;;;;;20.43;37.13;98961.00;4990963;28;20406;-77
2020/12/10 03:30:22;;;;;;;1.42;1.20;;;;;;;20.45;37.23;98968.84;4992441;28;20052;-75
2020/12/10 03:32:48;;;;;;;2.00;1.30;;;;;;;20.44;36.93;98959.22;4995793;28;20045;-76
2020/12/10 03:35:14;;;;;;;2.08;1.65;;;;;;;20.44;37.32;98956.59;4991048;28;20045;-77
2020/12/10 03:37:39;;;;;;;2.05;1.48;;;;;;;20.44;37.33;98961.88;4992831;28;20038;-75
2020/12/10 03:40:05;;;;;;;2.03;1.52;;;;;;;20.43;37.07;98961.00;4989501;28;20037;-78
2020/12/10 03:42:31;;;;;;;1.70;1.20;;;;;;;20.43;37.04;98954.88;4977166;28;20141;-77
2020/12/10 03:44:56;;;;;;;2.28;1.65;;;;;;;20.43;37.06;98949.63;4990714;28;20406;-76
2020/12/10 03:47:22;;;;;;;1.70;1.25;;;;;;;20.42;37.24;98945.28;5003470;28;20173;-77
2020/12/10 03:49:47;;;;;;;1.90;1.30;;;;;;;20.41;37.19;98954.09;4998336;28;20026;-78
2020/12/10 03:52:12;;;;;;;1.70;1.40;;;;;;;20.41;37.34;98946.19;4991569;28;20031;-77
2020/12/10 03:54:38;;;;;;;2.30;1.55;;;;;;;20.42;37.33;98956.66;4983137;28;21564;-77
2020/12/10 03:57:03;;;;;;;1.65;1.20;;;;;;;20.42;37.05;98951.38;4995257;28;20107;-76
2020/12/10 03:59:29;;;;;;;1.98;1.30;;;;;;;20.43;37.34;98950.47;4980300;28;20402;-75
2020/12/10 04:01:55;;;;;;;1.75;1.20;;;;;;;20.44;37.23;98953.97;4991156;28;20030;-76
2020/12/10 04:04:21;;;;;;;1.88;1.33;;;;;;;20.43;37.27;98947.84;4994307;28;20076;-78
2020/12/10 04:06:46;;;;;;;1.98;1.20;;;;;;;20.43;37.13;98945.19;4990361;28;20494;-77
2020/12/10 04:09:12;;;;;;;2.03;1.52;;;;;;;20.43;37.19;98957.53;4989227;28;20081;-77
2020/12/10 04:11:38;;;;;;;1.42;1.30;;;;;;;20.44;37.09;98946.06;5007903;28;20081;-80
2020/12/10 04:14:05;;;;;;;2.08;1.20;;;;;;;20.44;37.04;98943.44;5004905;28;20553;-78
2020/12/10 04:16:30;;;;;;;2.13;1.42;;;;;;;20.43;37.04;98939.94;4990646;28;20062;-79
2020/12/10 04:18:55;;;;;;;1.98;1.35;;;;;;;20.41;37.29;98938.31;5001150;28;20069;-76
2020/12/10 04:21:21;;;;;;;1.63;1.30;;;;;;;20.42;37.28;98940.03;4994515;28;20111;-77
2020/12/10 04:23:47;;;;;;;1.92;1.45;;;;;;;20.43;37.18;98939.09;4989053;28;20550;-77
2020/12/10 04:26:16;;;;;;;1.83;1.60;;;;;;;20.42;37.03;98929.50;4994416;28;20038;-77
2020/12/10 04:28:42;;;;;;;2.05;1.40;;;;;;;20.43;37.07;98933.84;4990141;28;20030;-75
2020/12/10 04:31:07;;;;;;;1.50;1.20;;;;;;;20.41;36.94;98930.41;4993531;28;20517;-77
2020/12/10 04:33:33;;;;;;;1.60;1.33;;;;;;;20.39;37.01;98923.44;4994838;28;20042;-79
2020/12/10 04:35:58;;;;;;;1.77;1.40;;;;;;;20.42;36.88;98921.59;4994022;28;20446;-77
2020/12/10 04:38:24;;;;;;;3.20;1.20;;;;;;;20.40;37.08;98921.66;4992602;28;20030;-78
2020/12/10 04:40:50;;;;;;;1.92;1.42;;;;;;;20.41;37.03;98919.88;4996579;28;20030;-78
2020/12/10 04:43:16;;;;;;;2.35;1.60;;;;;;;20.42;37.04;98922.44;4991914;28;20089;-79
2020/12/10 04:45:42;;;;;;;2.25;1.42;;;;;;;20.41;37.23;98918.09;5008413;28;20060;-79
2020/12/10 04:48:07;;;;;;;1.90;1.55;;;;;;;20.42;37.08;98913.72;4992378;28;20491;-79
2020/12/10 04:50:36;;;;;;;2.10;1.42;;;;;;;20.40;36.92;98919.00;4995702;28;20479;-75
2020/12/10 04:53:03;;;;;;;2.08;1.48;;;;;;;20.41;37.01;98918.09;4984093;28;20057;-77
2020/12/10 04:55:28;;;;;;;2.13;1.42;;;;;;;20.43;37.01;98918.91;4997907;28;20041;-76
2020/12/10 04:57:54;;;;;;;1.60;1.30;;;;;;;20.41;37.13;98928.63;4992573;28;20038;-76
2020/12/10 05:00:21;;;;;;;1.92;1.58;;;;;;;20.38;37.17;98927.00;4993042;28;20081;-77
2020/12/10 05:02:47;;;;;;;1.67;1.33;;;;;;;20.37;37.36;98925.28;4994364;28;20054;-80
2020/12/10 05:05:29;;;;;;;1.27;1.10;;;;;;;20.34;37.04;98920.13;4996433;28;20883;-78
2020/12/10 05:07:57;;;;;;;2.00;1.33;;;;;;;20.35;37.14;98927.09;5006285;28;20450;-77
2020/12/10 05:10:22;;;;;;;1.90;1.10;;;;;;;20.35;37.22;98926.28;4996265;28;20061;-76
2020/12/10 05:12:48;;;;;;;2.15;1.50;;;;;;;20.34;37.31;98933.28;4993054;28;20097;-78
2020/12/10 05:15:18;;;;;;;2.08;1.38;;;;;;;20.34;37.13;98932.44;5000056;28;20053;-77
2020/12/10 05:17:44;;;;;;;1.60;1.20;;;;;;;20.33;37.26;98934.22;4995131;28;20023;-77
2020/12/10 05:20:10;;;;;;;1.88;1.40;;;;;;;20.35;37.18;98940.25;4999789;28;20046;-76
2020/12/10 05:22:44;;;;;;;2.20;1.35;;;;;;;20.34;37.23;98940.34;5009687;28;20035;-76
2020/12/10 05:25:09;;;;;;;1.40;1.15;;;;;;;20.37;37.14;98943.69;4992824;28;20165;-78
2020/12/10 05:27:34;;;;;;;1.55;1.30;;;;;;;20.35;36.92;98952.56;5007581;28;20117;-77
2020/12/10 05:30:00;;;;;;;1.40;1.15;;;;;;;20.36;37.03;98959.56;4997007;28;20096;-78
2020/12/10 05:32:36;;;;;;;1.85;1.25;;;;;;;20.35;37.05;98957.84;4993602;28;20030;-76
2020/12/10 05:35:13;;;;;;;2.10;1.50;;;;;;;20.34;37.13;98946.44;4997078;28;20054;-79
2020/12/10 05:37:40;;;;;;;1.50;1.30;;;;;;;20.37;37.02;98951.59;4985120;28;20050;-75
2020/12/10 05:40:06;;;;;;;2.08;1.58;;;;;;;20.37;36.97;98958.63;5001115;28;20035;-79
2020/12/10 05:42:43;;;;;;;2.25;1.55;;;;;;;20.37;37.13;98959.47;5000938;28;20034;-78
2020/12/10 05:45:12;;;;;;;1.67;1.30;;;;;;;20.38;36.88;98949.81;4993063;28;20040;-77
2020/12/10 05:47:44;;;;;;;2.25;1.52;;;;;;;20.38;37.03;98953.31;4993844;28;20031;-78
2020/12/10 05:50:12;;;;;;;3.70;1.42;;;;;;;20.36;36.70;98957.75;4992413;28;20038;-78
2020/12/10 05:52:42;;;;;;;1.95;1.40;;;;;;;20.36;37.04;98962.19;4998278;28;20033;-76
2020/12/10 05:55:07;;;;;;;2.40;1.30;;;;;;;20.37;37.04;98959.47;4992562;28;20038;-78
2020/12/10 05:57:33;;;;;;;1.52;1.30;;;;;;;20.38;37.15;98957.72;5009634;28;20022;-77
2020/12/10 06:00:03;;;;;;;4.65;1.40;;;;;;;20.36;36.90;98941.97;4993215;28;20101;-74
2020/12/10 06:02:30;;;;;;;2.60;1.80;;;;;;;20.38;36.91;98949.81;4992302;28;20114;-75
2020/12/10 06:04:56;;;;;;;1.75;1.45;;;;;;;20.36;37.08;98954.28;4995045;28;20499;-77
2020/12/10 06:07:21;;;;;;;1.98;1.40;;;;;;;20.36;36.86;98941.97;4991675;28;20045;-78
2020/12/10 06:09:47;;;;;;;1.80;1.35;;;;;;;20.36;37.16;98941.13;5007130;28;20030;-78
2020/12/10 06:12:12;;;;;;;2.03;1.50;;;;;;;20.36;36.88;98938.50;4992425;28;20105;-75
2020/12/10 06:14:52;;;;;;;2.20;1.40;;;;;;;20.34;37.18;98941.19;5007197;28;20776;-78
2020/12/10 06:17:17;;;;;;;2.53;1.40;;;;;;;20.36;37.04;98941.13;4999396;28;20149;-77
2020/12/10 06:19:43;;;;;;;1.88;1.45;;;;;;;20.36;36.89;98938.50;4992141;28;20569;-77
2020/12/10 06:22:24;;;;;;;2.40;1.70;;;;;;;20.34;36.93;98950.88;4992768;28;20494;-75
2020/12/10 06:24:49;;;;;;;2.72;1.88;;;;;;;20.34;36.90;98943.81;4995503;28;20048;-75
2020/12/10 06:27:26;;;;;;;2.45;1.70;;;;;;;20.34;36.99;98950.88;4992073;28;20403;-77
2020/12/10 06:30:13;;;;;;;1.35;1.17;;;;;;;20.32;37.03;98948.28;4998422;28;20122;-79
2020/12/10 06:32:46;;;;;;;2.40;1.50;;;;;;;20.34;36.85;98945.59;4993770;28;20023;-77
2020/12/10 06:35:35;;;;;;;1.92;1.50;;;;;;;20.31;36.98;98949.22;4994818;28;20042;-78
2020/12/10 06:38:03;;;;;;;2.90;1.77;;;;;;;20.33;36.93;98950.00;5008333;28;20034;-77
2020/12/10 06:40:34;;;;;;;2.25;1.65;;;;;;;20.35;37.00;98947.31;4991687;28;20108;-77
2020/12/10 06:43:01;;;;;;;2.58;1.50;;;;;;;20.33;36.92;98950.00;4991415;28;20026;-77
2020/12/10 06:45:27;;;;;;;2.58;1.50;;;;;;;20.35;37.08;98958.69;4996028;28;20036;-76
2020/12/10 06:47:52;;;;;;;2.53;1.90;;;;;;;20.35;36.78;98957.84;5000184;28;20042;-76
2020/12/10 06:50:21;;;;;;;2.53;1.80;;;;;;;20.32;36.84;98957.97;5002487;28;20782;-76
2020/12/10 06:53:08;;;;;;;3.88;1.70;;;;;;;20.31;36.85;98953.63;4992081;28;20038;-76
2020/12/10 06:55:47;;;;;;;2.05;1.63;;;;;;;20.34;36.91;98958.75;4991662;28;20380;-79
2020/12/10 06:58:15;;;;;;;4.10;1.90;;;;;;;20.33;37.10;98959.69;4991160;28;20145;-76
2020/12/10 07:00:49;;;;;;;2.90;1.63;;;;;;;20.34;36.77;98961.38;4972886;28;20030;-77
2020/12/10 07:03:25;;;;;;;2.40;1.98;;;;;;;20.35;36.80;98958.69;5008395;28;20120;-79
2020/12/10 07:05:50;;;;;;;3.40;1.63;;;;;;;20.36;36.84;98959.56;5008256;28;20061;-75
2020/12/10 07:08:19;;;;;;;4.22;1.98;;;;;;;20.36;37.05;98967.44;4995147;28;20121;-74
2020/12/10 07:10:48;;;;;;;4.75;2.17;;;;;;;20.36;36.98;98967.44;5007836;28;20040;-73
2020/12/10 07:13:16;;;;;;;6.25;1.77;;;;;;;20.37;37.02;98967.38;4992315;28;20109;-73
2020/12/10 07:15:49;;;;;;;3.60;1.75;;;;;;;20.37;36.98;98970.00;4992393;28;20086;-72
2020/12/10 07:18:15;;;;;;;6.90;2.20;;;;;;;20.37;37.09;98962.09;4992404;28;20050;-76
2020/12/10 07:20:40;;;;;;;3.78;1.98;;;;;;;20.42;37.19;98958.44;4991380;28;20514;-79
2020/12/10 07:23:06;;;;;;;8.63;2.83;;;;;;;20.46;37.10;98954.75;4992154;28;20042;-72
2020/12/10 07:25:31;;;;;;;4.85;2.33;;;;;;;20.47;37.26;98956.47;4991078;28;20046;-74
2020/12/10 07:27:58;;;;;;;12.52;2.60;;;;;;;20.48;37.31;98959.03;4991904;28;20045;-72
2020/12/10 07:30:24;;;;;;;5.20;2.63;;;;;;;20.53;37.22;98961.47;4991635;28;20562;-77
2020/12/10 07:32:54;;;;;;;7.65;2.88;;;;;;;20.53;37.10;98961.47;4994422;28;20491;-73
2020/12/10 07:35:29;;;;;;;8.88;2.67;;;;;;;20.53;37.03;98964.09;4997064;28;20038;-78
2020/12/10 07:37:54;;;;;;;10.48;3.92;;;;;;;20.56;37.29;98963.97;4991961;28;20113;-81
2020/12/10 07:40:20;;;;;;;9.10;3.83;;;;;;;20.60;37.12;98964.69;4990936;28;20575;-74
2020/12/10 07:42:46;;;;;;;12.85;4.53;;;;;;;20.60;37.37;98962.06;4991741;28;20396;-74
2020/12/10 07:45:15;;;;;;;13.05;5.07;;;;;;;20.56;37.34;98958.72;5009874;28;20042;-76
2020/12/10 07:47:41;;;;;;;12.93;4.00;;;;;;;20.57;37.35;98964.81;5011991;28;20104;-74
2020/12/10 07:50:21;;;;;;;15.40;3.80;;;;;;;20.61;37.22;98959.38;5005585;28;20510;-74
2020/12/10 07:52:48;;;;;;;10.18;4.20;;;;;;;20.58;37.44;98961.25;5008254;28;20049;-77
2020/12/10 07:55:50;;;;;;;8.25;3.90;;;;;;;20.56;37.22;98961.34;5011050;28;20061;-75
2020/12/10 07:58:34;;;;;;;7.22;3.50;;;;;;;20.59;37.30;98963.84;4982909;28;20053;-75
2020/12/10 08:01:03;;;;;;;9.38;3.15;;;;;;;20.61;37.26;98961.13;4992021;28;20042;-73
2020/12/10 08:03:51;;;;;;;12.27;3.40;;;;;;;20.62;37.19;98954.97;4991958;28;20045;-77
2020/12/10 08:06:17;;;;;;;10.95;3.83;;;;;;;20.59;37.16;98955.94;4977849;28;20133;-76
2020/12/10 08:09:01;;;;;;;9.60;4.43;;;;;;;20.57;37.32;98965.69;5009184;28;20108;-77
2020/12/10 08:11:27;;;;;;;8.93;3.65;;;;;;;20.55;37.42;98964.88;5011061;28;20041;-80
2020/12/10 08:14:00;;;;;;;12.93;4.38;;;;;;;20.61;37.42;98969.03;4994349;28;20034;-74
2020/12/10 08:16:39;;;;;;;13.70;4.03;;;;;;;20.61;37.65;98969.03;4998801;28;20058;-78
2020/12/10 08:19:15;;;;;;;10.63;4.00;;;;;;;20.65;37.59;98973.25;5014300;28;20037;-75
2020/12/10 08:21:41;;;;;;;15.05;4.55;;;;;;;20.65;37.73;98978.53;5001133;28;20034;-76
2020/12/10 08:24:07;;;;;;;13.88;3.90;;;;;;;20.65;37.86;98968.00;5004645;28;20610;-71
2020/12/10 08:26:32;;;;;;;13.75;4.40;;;;;;;20.66;37.68;98973.19;4999375;28;20121;-78
2020/12/10 08:28:58;;;;;;;13.80;4.32;;;;;;;20.65;37.74;98971.47;5000502;28;20042;-73
2020/12/10 08:31:25;;;;;;;13.68;3.72;;;;;;;20.63;37.67;98970.66;5009615;28;20038;-73
2020/12/10 08:33:51;;;;;;;11.27;3.35;;;;;;;20.64;37.48;98969.75;5015000;28;20049;-72
2020/12/10 08:36:24;;;;;;;6.68;3.28;;;;;;;20.64;37.66;98982.06;5008572;28;20446;-73
2020/12/10 08:38:51;;;;;;;10.88;3.42;;;;;;;20.64;37.64;98969.75;4995242;28;20033;-73
2020/12/10 08:41:23;;;;;;;10.98;4.00;;;;;;;20.62;37.57;98966.34;5003990;28;20073;-78
2020/12/10 08:44:18;;;;;;;11.00;4.00;;;;;;;20.62;37.64;98955.81;5013806;28;20060;-73
2020/12/10 08:46:43;;;;;;;8.77;3.90;;;;;;;20.64;37.38;98955.75;4994708;28;20046;-71
2020/12/10 08:49:19;;;;;;;16.05;5.10;;;;;;;20.58;37.45;98953.38;5010368;28;20034;-73
2020/12/10 08:51:47;;;;;;;8.50;4.30;;;;;;;20.58;37.32;98961.25;5008992;28;20026;-74
2020/12/10 08:54:16;;;;;;;13.18;5.05;;;;;;;20.55;37.47;98959.63;4995179;28;20041;-73
2020/12/10 08:56:43;;;;;;;11.23;5.10;;;;;;;20.55;37.46;98957.00;4995179;28;20034;-72
2020/12/10 08:59:09;;;;;;;15.25;5.28;;;;;;;20.54;37.49;98961.41;4995143;28;20034;-77
2020/12/10 09:01:35;;;;;;;10.40;4.63;;;;;;;20.55;37.31;98964.88;4994760;28;20043;-76
2020/12/10 09:04:02;;;;;;;11.77;5.82;;;;;;;20.55;37.04;98970.16;4998129;28;20042;-74
2020/12/10 09:06:35;;;;;;;9.75;5.45;;;;;;;20.52;37.24;98976.41;5003576;28;20116;-76
2020/12/10 09:09:03;;;;;;;11.52;5.35;;;;;;;20.53;37.28;98970.22;5011970;28;20046;-73
2020/12/10 09:11:28;;;;;;;13.60;5.40;;;;;;;20.52;37.22;98967.66;5008715;28;20037;-71
2020/12/10 09:13:54;;;;;;;9.00;5.00;;;;;;;20.48;37.05;98979.22;5025638;28;20034;-73
2020/12/10 09:16:19;;;;;;;10.63;5.95;;;;;;;20.46;37.23;98979.28;5010579;28;20038;-72
2020/12/10 09:18:45;;;;;;;9.57;5.45;;;;;;;20.45;37.04;98979.38;5003254;28;20045;-74
2020/12/10 09:21:10;;;;;;;12.60;5.85;;;;;;;20.44;36.60;98985.53;5002992;28;20101;-75
2020/12/10 09:23:44;;;;;;;17.65;5.25;;;;;;;20.47;36.81;98990.69;4994724;28;20043;-74
2020/12/10 09:26:11;;;;;;;10.27;5.43;;;;;;;20.46;36.73;98988.97;4995173;28;20077;-78
2020/12/10 09:28:37;;;;;;;10.00;4.70;;;;;;;20.47;36.78;98983.63;5005618;28;20057;-75
2020/12/10 09:31:02;;;;;;;12.55;4.47;;;;;;;20.46;36.80;98986.34;5014352;28;20072;-76
2020/12/10 09:33:27;;;;;;;9.57;4.80;;;;;;;20.49;36.65;98980.94;4995010;28;20101;-72
2020/12/10 09:35:53;;;;;;;10.98;4.82;;;;;;;20.49;36.60;98976.53;5012990;28;20065;-72
2020/12/10 09:38:18;;;;;;;7.13;4.25;;;;;;;20.48;36.89;98985.34;5007999;28;20058;-75
2020/12/10 09:40:46;;;;;;;7.93;4.57;;;;;;;20.49;36.73;98981.78;5007451;28;20026;-76
2020/12/10 09:43:11;;;;;;;8.32;4.68;;;;;;;20.50;36.82;98985.28;5013507;28;20112;-75
2020/12/10 09:45:36;;;;;;;8.73;4.60;;;;;;;20.50;36.67;98982.63;4994590;28;20121;-72
2020/12/10 09:48:02;;;;;;;6.55;4.20;;;;;;;20.49;36.48;98987.06;4993831;28;20057;-75
2020/12/10 09:50:30;;;;;;;8.15;4.25;;;;;;;20.50;36.49;98982.63;4995384;28;20553;-75
2020/12/10 09:55:49;;;;;;;7.47;4.40;;;;;;;20.51;36.50;98993.13;4994622;28;20411;-82
2020/12/10 09:58:15;;;;;;;8.35;4.78;;;;;;;20.51;36.59;98987.00;4994565;28;20410;-74
2020/12/10 10:00:40;;;;;;;6.28;3.83;;;;;;;20.49;36.31;98981.78;4994435;28;20113;-79
2020/12/10 10:03:06;;;;;;;6.82;4.10;;;;;;;20.47;36.58;98973.09;4994645;28;20038;-82
2020/12/10 10:05:34;;;;;;;5.00;3.13;;;;;;;20.48;36.53;98973.94;4995122;28;20117;-74
2020/12/10 10:08:01;;;;;;;6.93;4.00;;;;;;;20.48;36.80;98977.47;5011928;28;20018;-79
2020/12/10 10:10:27;;;;;;;6.60;3.72;;;;;;;20.49;36.41;98975.66;5019000;28;20048;-73
2020/12/10 10:12:52;;;;;;;6.93;3.40;;;;;;;20.53;36.49;98975.50;5013373;28;20498;-75
2020/12/10 10:15:18;;;;;;;7.82;3.72;;;;;;;20.49;36.39;98967.78;5013803;28;20041;-75
2020/12/10 10:17:43;;;;;;;7.22;3.90;;;;;;;20.45;36.45;98971.47;5013537;28;20487;-75
2020/12/10 10:20:09;;;;;;;5.60;3.58;;;;;;;20.41;36.56;98969.88;4995354;28;20030;-72
2020/12/10 10:22:38;;;;;;;8.52;3.78;;;;;;;20.39;36.23;98976.06;5032155;28;20128;-77
2020/12/10 10:25:05;;;;;;;9.55;3.80;;;;;;;20.42;36.28;98972.44;5032534;28;20406;-76
2020/12/10 10:27:30;;;;;;;6.43;3.90;;;;;;;20.38;36.23;98969.09;5032496;28;20477;-72
2020/12/10 10:29:55;;;;;;;7.75;4.15;;;;;;;20.42;36.49;98975.06;5033572;28;20057;-72
2020/12/10 10:32:21;;;;;;;7.30;4.05;;;;;;;20.43;36.36;98982.03;5033195;28;20121;-77
2020/12/10 10:34:46;;;;;;;6.60;3.38;;;;;;;20.41;36.23;98977.78;5033188;28;20034;-77
2020/12/10 10:37:12;;;;;;;5.53;3.20;;;;;;;20.44;36.41;98975.03;5032965;28;20493;-74
2020/12/10 10:39:37;;;;;;;7.55;4.05;;;;;;;20.43;36.44;98976.78;5032942;28;20108;-76
2020/12/10 10:42:02;;;;;;;8.30;3.67;;;;;;;20.43;36.36;98974.16;5032661;28;20075;-76
2020/12/10 10:44:28;;;;;;;5.03;3.28;;;;;;;20.42;36.28;98974.22;5033154;28;20029;-72
2020/12/10 10:46:53;;;;;;;10.23;3.75;;;;;;;20.42;36.42;98977.69;5031132;28;20092;-76
2020/12/10 10:49:19;;;;;;;4.97;3.17;;;;;;;20.39;36.42;98967.31;5032943;28;20075;-75
2020/12/10 10:51:47;;;;;;;4.20;2.90;;;;;;;20.41;36.73;98962.81;5032506;28;20086;-74
2020/12/10 10:54:13;;;;;;;5.93;3.15;;;;;;;20.42;36.22;98961.06;5032746;28;20037;-75
2020/12/10 10:56:38;;;;;;;5.55;3.08;;;;;;;20.43;36.37;98957.53;5032932;28;20116;-72
2020/12/10 10:59:03;;;;;;;4.80;2.85;;;;;;;20.43;36.43;98966.25;5032759;28;20060;-75
2020/12/10 11:01:29;;;;;;;7.05;3.33;;;;;;;20.41;36.41;98956.72;5032400;28;20044;-72
2020/12/10 11:03:56;;;;;;;7.05;3.40;;;;;;;20.42;36.63;98955.81;4998150;28;20414;-77
2020/12/10 11:06:21;;;;;;;4.00;2.60;;;;;;;20.40;36.51;98961.13;4992689;28;20042;-74
2020/12/10 11:08:47;;;;;;;4.85;2.72;;;;;;;20.39;36.44;98948.91;4993241;28;20061;-78
2020/12/10 11:11:17;;;;;;;4.32;2.80;;;;;;;20.39;36.55;98944.47;5008500;28;20045;-73
2020/12/10 11:13:43;;;;;;;6.57;2.90;;;;;;;20.42;36.53;98943.50;4992689;28;20057;-73
2020/12/10 11:16:08;;;;;;;5.10;2.90;;;;;;;20.44;36.18;98940.81;4992810;28;20104;-78
2020/12/10 11:18:33;;;;;;;4.47;3.00;;;;;;;20.41;36.39;98938.31;4992920;28;20410;-74
2020/12/10 11:20:59;;;;;;;6.10;3.47;;;;;;;20.42;36.48;98940.88;4993066;28;20034;-75
2020/12/10 11:23:24;;;;;;;4.72;2.95;;;;;;;20.45;36.32;98938.09;4991836;28;20030;-79
2020/12/10 11:25:49;;;;;;;5.72;2.80;;;;;;;20.44;36.42;98933.75;4993254;28;20030;-75
2020/12/10 11:28:15;;;;;;;5.78;3.17;;;;;;;20.44;36.34;98933.75;4993365;28;20038;-77
2020/12/10 11:30:40;;;;;;;5.32;3.13;;;;;;;20.43;36.43;98929.41;4992763;28;20030;-76
2020/12/10 11:33:06;;;;;;;4.18;2.90;;;;;;;20.46;36.35;98917.94;4993055;28;20070;-73
2020/12/10 11:35:31;;;;;;;4.53;2.63;;;;;;;20.45;36.30;98919.69;4992963;28;20088;-77